Time;durP1;ratioP1;P1;durP2;ratioP2;P2;SDS_P1;SDS_P2;PMS_P1;PMS_P2;Temp;Humidity;BMP_temperature;BMP_pressure;BME280_temperature;BME280_humidity;BME280_pressure;Samples;Min_cycle;Max_cycle;Signal;HPM_P1;HPM_P2
2023/07/15 00:01:45;;;;;;;4.10;3.70;;;20.20;57.50;;;;;;5073206;28;20449;-58
2023/07/15 00:04:14;;;;;;;6.60;4.07;;;20.20;57.60;;;;;;5072704;28;20557;-58
2023/07/15 00:06:41;;;;;;;6.20;4.13;;;20.20;57.70;;;;;;5072725;28;20476;-59
2023/07/15 00:09:09;;;;;;;6.70;3.70;;;20.10;57.80;;;;;;5073257;28;20488;-58
2023/07/15 00:11:39;;;;;;;3.17;2.87;;;20.10;57.90;;;;;;5073189;28;20454;-58
2023/07/15 00:14:15;;;;;;;3.50;3.20;;;20.00;57.90;;;;;;5073014;28;20510;-58
2023/07/15 00:16:42;;;;;;;4.80;3.57;;;20.00;58.00;;;;;;5074066;28;20437;-58
2023/07/15 00:19:11;;;;;;;4.93;3.17;;;20.00;58.20;;;;;;5074311;28;20458;-58
2023/07/15 00:21:39;;;;;;;5.37;3.43;;;19.90;58.20;;;;;;5074552;28;20455;-58
2023/07/15 00:24:06;;;;;;;5.33;3.70;;;19.90;58.30;;;;;;5074593;28;20495;-58
2023/07/15 00:26:34;;;;;;;4.43;3.30;;;19.90;58.30;;;;;;5074056;28;20485;-59
2023/07/15 00:29:03;;;;;;;5.50;3.10;;;19.90;58.40;;;;;;5077390;28;20440;-57
2023/07/15 00:31:32;;;;;;;4.50;3.30;;;19.90;58.30;;;;;;5077031;28;20452;-58
2023/07/15 00:33:59;;;;;;;3.20;2.83;;;19.90;58.40;;;;;;5076924;28;20528;-58
2023/07/15 00:36:28;;;;;;;4.07;3.20;;;19.90;58.40;;;;;;5076879;28;20444;-58
2023/07/15 00:38:54;;;;;;;5.47;3.10;;;19.90;58.50;;;;;;5076852;28;20499;-59
2023/07/15 00:41:23;;;;;;;4.97;3.70;;;19.80;58.50;;;;;;5076824;28;20451;-59
2023/07/15 00:43:53;;;;;;;6.20;3.07;;;19.80;58.60;;;;;;5076716;28;20469;-58
2023/07/15 00:46:58;;;;;;;5.40;3.20;;;19.80;58.70;;;;;;5076342;28;20823;-59
2023/07/15 00:49:27;;;;;;;5.27;3.80;;;19.70;58.70;;;;;;5076789;28;20433;-58
2023/07/15 00:52:01;;;;;;;3.97;3.50;;;19.70;58.90;;;;;;5076404;28;20972;-58
2023/07/15 00:54:29;;;;;;;6.70;3.83;;;19.60;59.00;;;;;;5076319;28;21007;-57
2023/07/15 00:56:56;;;;;;;4.70;3.30;;;19.60;59.10;;;;;;5076324;28;20905;-57
2023/07/15 00:59:24;;;;;;;4.70;3.27;;;19.60;59.20;;;;;;5076551;28;20444;-59
2023/07/15 01:01:53;;;;;;;7.17;3.63;;;19.60;59.30;;;;;;5076595;28;20448;-59
2023/07/15 01:04:21;;;;;;;4.43;3.47;;;19.60;59.30;;;;;;5076309;28;20464;-59
2023/07/15 01:06:48;;;;;;;5.20;3.00;;;19.50;59.40;;;;;;5076124;28;20510;-58
2023/07/15 01:09:15;;;;;;;3.57;2.87;;;19.50;59.50;;;;;;5075995;28;20976;-57
2023/07/15 01:11:41;;;;;;;5.00;3.27;;;19.50;59.50;;;;;;5076257;28;20451;-58
2023/07/15 01:14:12;;;;;;;3.90;3.20;;;19.50;59.70;;;;;;5076257;28;20623;-58
2023/07/15 01:16:39;;;;;;;7.77;3.23;;;19.50;59.80;;;;;;5076436;28;20433;-57
2023/07/15 01:19:07;;;;;;;4.77;2.93;;;19.40;59.80;;;;;;5076679;28;20456;-59
2023/07/15 01:21:34;;;;;;;3.30;2.90;;;19.40;59.90;;;;;;5076029;28;20459;-58
2023/07/15 01:24:03;;;;;;;4.30;3.40;;;19.40;60.00;;;;;;5075871;28;20475;-59
2023/07/15 01:26:31;;;;;;;4.00;3.50;;;19.40;60.20;;;;;;5075602;28;21067;-59
2023/07/15 01:28:57;;;;;;;4.17;3.40;;;19.30;60.20;;;;;;5076309;28;20448;-57
2023/07/15 01:31:25;;;;;;;4.93;3.80;;;19.30;60.20;;;;;;5075980;28;20806;-59
2023/07/15 01:33:52;;;;;;;5.57;3.77;;;19.30;60.30;;;;;;5075519;28;20843;-56
2023/07/15 01:36:19;;;;;;;5.30;3.07;;;19.30;60.40;;;;;;5076006;28;20874;-57
2023/07/15 01:38:46;;;;;;;3.67;3.10;;;19.30;60.50;;;;;;5075163;28;20445;-58
2023/07/15 01:41:14;;;;;;;3.60;3.13;;;19.30;60.50;;;;;;5075472;28;20437;-58
2023/07/15 01:43:40;;;;;;;5.30;3.80;;;19.30;60.60;;;;;;5075746;28;20806;-59
2023/07/15 01:46:07;;;;;;;8.20;4.40;;;19.20;60.60;;;;;;5075574;28;20828;-58
2023/07/15 01:48:34;;;;;;;4.20;3.80;;;19.30;60.70;;;;;;5075630;28;20480;-59
2023/07/15 01:51:01;;;;;;;6.13;4.23;;;19.30;60.70;;;;;;5075444;28;20464;-58
2023/07/15 01:53:28;;;;;;;5.43;2.70;;;19.20;60.70;;;;;;5075157;28;20468;-58
2023/07/15 01:55:55;;;;;;;4.07;3.67;;;19.30;60.80;;;;;;5075317;28;20452;-58
2023/07/15 01:58:23;;;;;;;3.67;3.10;;;19.30;60.80;;;;;;5075266;28;20440;-58
2023/07/15 02:00:49;;;;;;;4.80;3.70;;;19.20;60.70;;;;;;5075717;28;20455;-58
2023/07/15 02:03:16;;;;;;;5.07;3.83;;;19.20;60.70;;;;;;5075116;28;20467;-59
2023/07/15 02:05:43;;;;;;;4.47;3.30;;;19.20;60.80;;;;;;5074853;28;20460;-59
2023/07/15 02:08:10;;;;;;;6.23;4.20;;;19.20;60.90;;;;;;5074922;28;20480;-57
2023/07/15 02:10:37;;;;;;;5.00;3.03;;;19.20;60.90;;;;;;5075039;28;20451;-58
2023/07/15 02:13:04;;;;;;;4.10;3.70;;;19.20;61.00;;;;;;5074766;28;20457;-57
2023/07/15 02:15:32;;;;;;;6.63;4.47;;;19.20;61.10;;;;;;5074725;28;20444;-58
2023/07/15 02:17:59;;;;;;;3.97;3.57;;;19.10;61.10;;;;;;5074667;28;20445;-58
2023/07/15 02:20:26;;;;;;;6.60;3.87;;;19.10;61.30;;;;;;5074856;28;20457;-58
2023/07/15 02:22:53;;;;;;;4.87;3.50;;;19.10;61.40;;;;;;5074572;28;20472;-58
2023/07/15 02:25:20;;;;;;;4.83;4.10;;;19.10;61.60;;;;;;5074796;28;20424;-58
2023/07/15 02:27:48;;;;;;;4.97;2.97;;;19.00;61.60;;;;;;5074517;28;20479;-58
2023/07/15 02:30:14;;;;;;;3.40;3.10;;;19.00;61.80;;;;;;5074934;28;20809;-58
2023/07/15 02:32:44;;;;;;;3.37;2.67;;;19.00;62.00;;;;;;5074649;28;20447;-58
2023/07/15 02:35:12;;;;;;;5.10;4.60;;;18.90;62.10;;;;;;5074404;28;20444;-57
2023/07/15 02:37:39;;;;;;;4.90;3.40;;;18.90;62.40;;;;;;5074396;28;20451;-58
2023/07/15 02:40:08;;;;;;;5.47;3.63;;;18.90;62.50;;;;;;5074617;28;20448;-57
2023/07/15 02:42:36;;;;;;;4.00;3.03;;;18.80;62.60;;;;;;5074423;28;20449;-57
2023/07/15 02:45:04;;;;;;;3.63;2.90;;;18.80;63.50;;;;;;5074662;28;20481;-58
2023/07/15 02:47:31;;;;;;;6.93;3.50;;;18.80;63.00;;;;;;5074948;28;20920;-58
2023/07/15 02:50:04;;;;;;;3.47;2.93;;;18.70;63.20;;;;;;5073790;28;20957;-57
2023/07/15 02:52:32;;;;;;;10.30;3.80;;;18.70;63.40;;;;;;5073811;28;20431;-58
2023/07/15 02:54:59;;;;;;;3.70;2.40;;;18.60;63.50;;;;;;5074692;28;20518;-57
2023/07/15 02:57:26;;;;;;;3.10;2.80;;;18.60;63.70;;;;;;5076737;28;20440;-57
2023/07/15 02:59:53;;;;;;;4.37;2.87;;;18.60;64.00;;;;;;5076191;28;20506;-57
2023/07/15 03:02:20;;;;;;;4.13;3.47;;;18.60;64.40;;;;;;5075544;28;20453;-57
2023/07/15 03:04:47;;;;;;;5.07;3.00;;;18.50;64.30;;;;;;5075306;28;20472;-57
2023/07/15 03:07:16;;;;;;;4.40;3.10;;;18.50;64.40;;;;;;5076117;28;20476;-56
2023/07/15 03:09:43;;;;;;;3.30;2.93;;;18.50;64.60;;;;;;5075174;28;20455;-57
2023/07/15 03:12:10;;;;;;;3.00;2.70;;;18.50;64.70;;;;;;5074388;28;20444;-56
2023/07/15 03:14:37;;;;;;;5.97;3.50;;;18.50;64.80;;;;;;5073769;28;20463;-58
2023/07/15 03:17:04;;;;;;;5.63;4.10;;;18.50;64.80;;;;;;5074053;28;20535;-57
2023/07/15 03:19:32;;;;;;;3.90;3.10;;;18.50;64.80;;;;;;5073983;28;20456;-57
2023/07/15 03:21:59;;;;;;;7.07;3.10;;;18.60;64.80;;;;;;5073488;28;20949;-57
2023/07/15 03:24:27;;;;;;;7.23;3.20;;;18.60;64.60;;;;;;5098047;22;20498;-57
2023/07/15 03:26:54;;;;;;;4.60;3.07;;;18.70;64.40;;;;;;5094024;28;20453;-57
2023/07/15 03:29:22;;;;;;;4.33;3.23;;;18.70;64.10;;;;;;5093690;28;20439;-58
2023/07/15 03:31:49;;;;;;;2.83;2.57;;;18.80;63.80;;;;;;5093791;28;20451;-56
2023/07/15 03:34:16;;;;;;;7.90;2.63;;;18.90;63.40;;;;;;5093719;28;20843;-57
2023/07/15 03:36:43;;;;;;;6.60;3.03;;;19.00;62.90;;;;;;5093427;28;21004;-56
2023/07/15 03:39:10;;;;;;;3.47;2.50;;;19.10;62.50;;;;;;5093893;28;20443;-57
2023/07/15 03:41:38;;;;;;;3.53;2.57;;;19.20;62.00;;;;;;5095177;28;20808;-56
2023/07/15 03:44:05;;;;;;;3.67;2.90;;;19.30;61.60;;;;;;5094982;28;20480;-57
2023/07/15 03:46:33;;;;;;;5.10;3.63;;;19.40;61.00;;;;;;5096145;28;20447;-57
2023/07/15 03:49:00;;;;;;;2.40;2.10;;;19.60;60.60;;;;;;5095721;28;21078;-57
2023/07/15 03:51:26;;;;;;;4.43;4.03;;;19.70;60.10;;;;;;5096302;28;20518;-57
2023/07/15 03:53:53;;;;;;;4.90;2.80;;;19.80;59.70;;;;;;5095653;28;20473;-57
2023/07/15 03:56:20;;;;;;;3.10;2.80;;;19.90;59.40;;;;;;5095575;28;20806;-57
2023/07/15 03:58:48;;;;;;;3.03;2.50;;;19.90;59.00;;;;;;5094785;28;20443;-57
2023/07/15 04:01:15;;;;;;;5.33;3.03;;;20.00;58.80;;;;;;5094139;28;20440;-58
2023/07/15 04:03:42;;;;;;;6.37;3.00;;;20.10;58.60;;;;;;5093778;28;20468;-57
2023/07/15 04:06:09;;;;;;;3.90;3.10;;;20.20;58.40;;;;;;5093973;28;20547;-57
2023/07/15 04:11:59;;;;;;;2.83;2.63;;;20.40;57.40;;;;;;5111085;27;20554;-56
2023/07/15 04:14:26;;;;;;;2.83;2.63;;;20.50;57.60;;;;;;5110817;28;20464;-56
2023/07/15 04:16:53;;;;;;;4.43;2.50;;;20.70;57.80;;;;;;5111475;28;20438;-57
2023/07/15 04:19:20;;;;;;;6.70;2.50;;;21.10;56.60;;;;;;5111459;28;20444;-57
2023/07/15 04:21:46;;;;;;;4.10;2.47;;;21.50;55.80;;;;;;5111438;28;20437;-56
2023/07/15 04:24:13;;;;;;;3.83;2.80;;;22.00;54.90;;;;;;5111426;28;20462;-57
2023/07/15 04:26:40;;;;;;;3.37;2.50;;;22.40;54.00;;;;;;5111122;28;20442;-55
2023/07/15 04:29:09;;;;;;;6.33;3.20;;;22.50;53.40;;;;;;5111355;28;20487;-57
2023/07/15 04:31:37;;;;;;;3.53;2.70;;;22.40;53.20;;;;;;5111202;28;21021;-57
2023/07/15 04:34:04;;;;;;;5.50;2.73;;;22.30;53.20;;;;;;5111016;28;20473;-56
2023/07/15 04:36:31;;;;;;;5.00;2.70;;;22.20;53.20;;;;;;5111738;28;20456;-55
2023/07/15 04:38:58;;;;;;;2.93;2.67;;;22.30;53.10;;;;;;5110745;28;20805;-56
2023/07/15 04:41:25;;;;;;;3.83;2.50;;;22.50;52.80;;;;;;5111076;28;20438;-57
2023/07/15 04:43:52;;;;;;;3.17;2.40;;;22.60;52.50;;;;;;5110136;28;21001;-57
2023/07/15 04:46:20;;;;;;;4.30;2.43;;;22.70;52.30;;;;;;5110503;28;20958;-57
2023/07/15 04:48:47;;;;;;;3.80;2.57;;;22.80;52.10;;;;;;5110456;28;20446;-57
2023/07/15 04:51:13;;;;;;;7.70;3.40;;;22.90;52.00;;;;;;5110336;28;20531;-57
2023/07/15 04:53:43;;;;;;;3.10;2.80;;;23.10;51.70;;;;;;5109825;28;20866;-57
2023/07/15 04:56:10;;;;;;;7.23;3.93;;;23.50;51.40;;;;;;5110061;28;21016;-57
2023/07/15 04:58:37;;;;;;;3.87;2.67;;;23.90;50.70;;;;;;5110520;28;20446;-57
2023/07/15 05:01:04;;;;;;;3.83;2.77;;;24.30;50.10;;;;;;5109572;28;20441;-57
2023/07/15 05:03:34;;;;;;;3.17;2.57;;;24.70;49.30;;;;;;5110059;28;20515;-57
2023/07/15 05:06:01;;;;;;;4.40;4.00;;;25.10;48.70;;;;;;5110102;28;20448;-58
2023/07/15 05:08:28;;;;;;;4.47;2.70;;;25.20;48.20;;;;;;5109686;28;20475;-58
2023/07/15 05:10:55;;;;;;;4.13;2.73;;;25.50;47.80;;;;;;5109581;28;20547;-58
2023/07/15 05:13:23;;;;;;;3.43;2.63;;;25.70;47.30;;;;;;5110012;28;20522;-58
2023/07/15 05:15:50;;;;;;;4.73;2.73;;;25.50;47.10;;;;;;5110184;28;20449;-57
2023/07/15 05:18:17;;;;;;;2.87;2.37;;;25.20;47.40;;;;;;5109975;28;20442;-58
2023/07/15 05:20:45;;;;;;;5.60;2.70;;;24.90;47.70;;;;;;5109707;28;20441;-57
2023/07/15 05:23:14;;;;;;;3.93;2.70;;;24.60;48.10;;;;;;5096676;28;20442;-58
2023/07/15 05:25:41;;;;;;;2.60;2.40;;;24.30;48.50;;;;;;5095950;28;20511;-58
2023/07/15 05:28:07;;;;;;;3.50;2.70;;;24.40;48.70;;;;;;5095886;28;20443;-57
2023/07/15 05:30:36;;;;;;;3.70;2.90;;;24.70;48.50;;;;;;5096036;28;20474;-57
2023/07/15 05:33:03;;;;;;;3.23;2.83;;;24.90;48.20;;;;;;5096398;28;20450;-56
2023/07/15 05:35:30;;;;;;;4.73;2.67;;;24.90;48.10;;;;;;5096016;28;20439;-56
2023/07/15 05:37:58;;;;;;;3.63;2.70;;;24.90;48.20;;;;;;5096077;28;20446;-57
2023/07/15 05:40:25;;;;;;;4.37;2.60;;;24.80;48.20;;;;;;5095826;28;20451;-57
2023/07/15 05:42:52;;;;;;;3.40;2.23;;;24.70;48.40;;;;;;5095398;28;20445;-56
2023/07/15 05:45:19;;;;;;;6.60;2.70;;;24.60;48.50;;;;;;5095649;28;20463;-57
2023/07/15 05:47:45;;;;;;;3.33;2.63;;;24.60;48.60;;;;;;5095608;28;20458;-57
2023/07/15 05:50:12;;;;;;;4.70;2.90;;;24.70;48.80;;;;;;5095433;28;20443;-58
2023/07/15 05:52:39;;;;;;;4.33;3.00;;;25.00;48.60;;;;;;5095495;28;20453;-57
2023/07/15 05:55:08;;;;;;;4.20;3.10;;;25.40;48.10;;;;;;5095696;28;20559;-57
2023/07/15 05:57:35;;;;;;;3.17;2.87;;;25.70;47.60;;;;;;5095839;28;20455;-58
2023/07/15 06:00:02;;;;;;;2.77;2.40;;;26.00;47.40;;;;;;5095588;28;20533;-58
2023/07/15 06:02:29;;;;;;;4.10;2.40;;;26.30;47.00;;;;;;5095333;28;20453;-58
2023/07/15 06:04:55;;;;;;;3.37;2.93;;;26.50;46.70;;;;;;5095306;28;20519;-57
2023/07/15 06:07:22;;;;;;;4.00;2.77;;;26.70;46.40;;;;;;5095169;28;20962;-59
2023/07/15 06:09:51;;;;;;;6.83;3.00;;;26.80;46.20;;;;;;5095273;28;20431;-58
2023/07/15 06:12:20;;;;;;;2.57;2.27;;;26.80;46.00;;;;;;5095344;28;20462;-58
2023/07/15 06:14:46;;;;;;;3.23;2.93;;;26.80;46.60;;;;;;5095136;28;20470;-59
2023/07/15 06:17:13;;;;;;;2.83;2.50;;;26.80;46.00;;;;;;5095963;28;20438;-57
2023/07/15 06:19:40;;;;;;;6.20;2.87;;;26.80;45.90;;;;;;5095213;28;20443;-59
2023/07/15 06:22:07;;;;;;;3.77;2.20;;;26.90;45.90;;;;;;5095114;28;20443;-57
2023/07/15 06:24:34;;;;;;;3.00;2.67;;;26.80;45.80;;;;;;5094941;28;20474;-58
2023/07/15 06:27:01;;;;;;;2.83;2.13;;;26.80;45.70;;;;;;5095494;28;20466;-59
2023/07/15 06:29:29;;;;;;;4.50;2.60;;;26.70;45.70;;;;;;5094907;28;20449;-59
2023/07/15 06:31:56;;;;;;;3.20;2.40;;;26.70;45.70;;;;;;5095361;28;20474;-56
2023/07/15 06:34:22;;;;;;;2.70;2.17;;;26.60;45.70;;;;;;5094005;28;20838;-58
2023/07/15 06:36:50;;;;;;;3.20;2.40;;;26.60;45.80;;;;;;5095806;28;20438;-58
2023/07/15 06:39:17;;;;;;;4.17;2.27;;;26.50;45.80;;;;;;5095116;28;20438;-58
2023/07/15 06:41:43;;;;;;;3.27;2.80;;;26.50;45.80;;;;;;5095214;28;20525;-58
2023/07/15 06:44:10;;;;;;;4.43;3.00;;;26.50;45.80;;;;;;5095442;28;20468;-58
2023/07/15 06:46:38;;;;;;;4.07;2.93;;;26.50;45.80;;;;;;5095960;28;20450;-58
2023/07/15 06:49:05;;;;;;;2.30;2.10;;;26.50;45.80;;;;;;5095861;28;20453;-57
2023/07/15 06:51:32;;;;;;;3.03;2.77;;;26.50;45.80;;;;;;5096105;28;20828;-56
2023/07/15 06:53:58;;;;;;;3.97;2.97;;;26.50;45.80;;;;;;5095514;28;20971;-57
2023/07/15 06:56:26;;;;;;;4.97;3.07;;;26.60;45.80;;;;;;5095804;28;20457;-58
2023/07/15 06:58:52;;;;;;;4.33;2.60;;;26.60;45.70;;;;;;5095692;28;20546;-58
2023/07/15 07:01:19;;;;;;;4.50;2.93;;;26.70;45.70;;;;;;5095505;28;20454;-57
2023/07/15 07:03:47;;;;;;;5.20;2.50;;;26.70;45.60;;;;;;5094711;28;20852;-58
2023/07/15 07:06:14;;;;;;;3.30;2.77;;;26.80;45.60;;;;;;5094951;28;20826;-58
2023/07/15 07:08:41;;;;;;;3.80;2.60;;;26.80;45.50;;;;;;5095756;28;20449;-57
2023/07/15 07:11:08;;;;;;;4.60;2.60;;;26.80;45.50;;;;;;5095041;28;20540;-57
2023/07/15 07:13:35;;;;;;;2.67;2.47;;;26.90;45.40;;;;;;5095489;28;20469;-56
2023/07/15 07:16:02;;;;;;;5.13;2.70;;;27.00;45.30;;;;;;5095807;28;20449;-58
2023/07/15 07:18:29;;;;;;;5.03;2.77;;;27.10;45.20;;;;;;5096280;28;20442;-57
2023/07/15 07:21:00;;;;;;;3.57;2.87;;;27.20;45.10;;;;;;5096049;28;20498;-57
2023/07/15 07:23:27;;;;;;;2.60;2.23;;;27.30;45.10;;;;;;5095838;28;20467;-55
2023/07/15 07:25:54;;;;;;;3.40;2.50;;;27.40;45.00;;;;;;5095689;28;20454;-58
2023/07/15 07:28:23;;;;;;;3.10;2.47;;;27.40;44.80;;;;;;5095726;28;20935;-57
2023/07/15 07:30:50;;;;;;;6.30;2.63;;;27.50;44.70;;;;;;5095741;28;20478;-56
2023/07/15 07:33:18;;;;;;;5.90;2.53;;;27.60;44.60;;;;;;5096634;28;20449;-58
2023/07/15 07:35:47;;;;;;;3.83;3.03;;;27.70;44.40;;;;;;5095826;28;20447;-57
2023/07/15 07:38:15;;;;;;;5.23;2.93;;;27.80;44.30;;;;;;5097054;28;20477;-58
2023/07/15 07:40:47;;;;;;;3.10;2.80;;;27.80;44.20;;;;;;5096771;28;20911;-59
2023/07/15 07:43:14;;;;;;;4.90;2.93;;;27.90;44.20;;;;;;5096876;28;20455;-58
2023/07/15 07:45:40;;;;;;;3.50;2.53;;;28.00;44.10;;;;;;5097296;28;20447;-58
2023/07/15 07:48:07;;;;;;;4.53;2.93;;;28.10;44.00;;;;;;5097324;28;20452;-57
2023/07/15 07:50:34;;;;;;;8.20;2.70;;;28.20;44.10;;;;;;5099737;28;20435;-58
2023/07/15 07:53:01;;;;;;;2.57;2.30;;;28.20;43.90;;;;;;5096887;28;20478;-58
2023/07/15 07:55:29;;;;;;;2.47;2.27;;;28.30;43.80;;;;;;5097304;28;20785;-58
2023/07/15 07:57:56;;;;;;;3.47;2.63;;;28.40;43.60;;;;;;5096670;28;20519;-55
2023/07/15 08:00:23;;;;;;;5.10;2.50;;;28.50;43.40;;;;;;5095401;28;20453;-57
2023/07/15 08:02:50;;;;;;;2.90;2.30;;;28.70;43.30;;;;;;5095277;28;20445;-57
2023/07/15 08:05:17;;;;;;;3.20;2.90;;;28.80;43.10;;;;;;5094303;28;20469;-57
2023/07/15 08:07:44;;;;;;;5.00;2.90;;;28.80;43.00;;;;;;5094167;28;20446;-58
2023/07/15 08:10:11;;;;;;;2.87;2.40;;;29.00;42.90;;;;;;5094561;28;20465;-57
2023/07/15 08:12:39;;;;;;;2.60;2.40;;;29.00;42.80;;;;;;5093974;28;21002;-57
2023/07/15 08:15:06;;;;;;;3.30;2.27;;;29.10;42.60;;;;;;5094605;28;20474;-58
2023/07/15 08:17:33;;;;;;;2.70;2.50;;;29.20;42.60;;;;;;5095052;28;20442;-58
2023/07/15 08:20:00;;;;;;;2.50;2.30;;;29.30;42.60;;;;;;5094354;28;20932;-56
2023/07/15 08:22:27;;;;;;;3.77;2.40;;;29.40;42.50;;;;;;5094500;28;20806;-59
2023/07/15 08:24:55;;;;;;;3.50;3.07;;;29.40;42.40;;;;;;5094002;28;20474;-58
2023/07/15 08:27:21;;;;;;;3.23;2.93;;;29.40;42.40;;;;;;5093714;28;20442;-59
2023/07/15 08:29:49;;;;;;;2.73;2.43;;;29.50;42.50;;;;;;5094251;28;20443;-58
2023/07/15 08:32:16;;;;;;;3.10;2.80;;;29.50;42.30;;;;;;5094545;28;20485;-58
2023/07/15 08:34:57;;;;;;;5.10;2.90;;;29.60;42.10;;;;;;5094580;28;20467;-59
2023/07/15 08:37:24;;;;;;;3.80;3.10;;;29.80;41.80;;;;;;5095080;28;20841;-58
2023/07/15 08:39:51;;;;;;;3.27;2.87;;;29.90;41.70;;;;;;5094023;28;20443;-58
2023/07/15 08:42:20;;;;;;;3.87;3.30;;;30.00;41.40;;;;;;5094411;28;20434;-59
2023/07/15 08:44:47;;;;;;;2.97;2.57;;;30.10;41.20;;;;;;5094575;28;20462;-60
2023/07/15 08:47:20;;;;;;;3.00;2.50;;;30.20;41.00;;;;;;5094142;28;20480;-58
2023/07/15 08:49:48;;;;;;;3.60;2.40;;;30.30;40.90;;;;;;5093896;28;20431;-58
2023/07/15 08:52:17;;;;;;;2.70;2.50;;;30.30;40.70;;;;;;5093812;28;20531;-58
2023/07/15 08:54:45;;;;;;;2.87;2.57;;;30.40;40.60;;;;;;5094062;28;20470;-59
2023/07/15 08:57:12;;;;;;;3.97;2.60;;;30.50;40.40;;;;;;5095634;28;20541;-58
2023/07/15 08:59:39;;;;;;;3.83;2.53;;;30.60;40.30;;;;;;5097818;28;21004;-59
2023/07/15 09:02:07;;;;;;;4.10;2.67;;;30.60;40.20;;;;;;5097657;28;20442;-59
2023/07/15 09:04:35;;;;;;;2.60;2.40;;;30.70;40.10;;;;;;5097957;28;20515;-58
2023/07/15 09:07:02;;;;;;;5.67;2.77;;;30.90;40.00;;;;;;5097996;28;20449;-59
2023/07/15 09:09:32;;;;;;;3.20;2.70;;;30.90;39.90;;;;;;5097471;28;20438;-59
2023/07/15 09:12:01;;;;;;;5.57;2.80;;;31.00;39.80;;;;;;5098322;28;20610;-57
2023/07/15 09:14:28;;;;;;;3.80;2.83;;;31.10;39.70;;;;;;5097244;28;20473;-58
2023/07/15 09:16:56;;;;;;;2.33;2.13;;;31.20;39.70;;;;;;5096815;28;20549;-58
2023/07/15 09:19:25;;;;;;;2.90;2.70;;;31.40;39.60;;;;;;5096769;28;20446;-57
2023/07/15 09:21:55;;;;;;;3.47;2.67;;;31.60;39.50;;;;;;5096645;28;20435;-59
2023/07/15 09:24:22;;;;;;;2.97;2.53;;;31.80;40.00;;;;;;5097410;28;20476;-59
2023/07/15 09:26:52;;;;;;;4.27;2.57;;;32.00;39.10;;;;;;5097355;28;20470;-58
2023/07/15 09:29:20;;;;;;;3.80;2.60;;;32.20;38.80;;;;;;5096741;28;20447;-59
2023/07/15 09:31:47;;;;;;;3.13;2.40;;;32.40;38.70;;;;;;5097008;28;20520;-58
2023/07/15 09:34:14;;;;;;;2.60;2.40;;;32.60;38.60;;;;;;5097043;28;20470;-57
2023/07/15 09:36:41;;;;;;;3.33;2.67;;;32.70;38.40;;;;;;5096678;28;20444;-59
2023/07/15 09:39:14;;;;;;;3.07;2.80;;;32.90;38.30;;;;;;5097173;28;20448;-58
2023/07/15 09:41:41;;;;;;;2.90;2.50;;;33.10;37.90;;;;;;5097355;28;20432;-58
2023/07/15 09:44:09;;;;;;;2.80;2.40;;;33.20;37.70;;;;;;5096822;28;20461;-58
2023/07/15 09:46:36;;;;;;;3.40;2.80;;;33.50;37.50;;;;;;5096460;28;20451;-60
2023/07/15 09:49:03;;;;;;;3.03;2.40;;;33.70;37.10;;;;;;5096913;28;20445;-58
2023/07/15 09:51:30;;;;;;;3.27;2.80;;;34.00;36.70;;;;;;5096416;28;20448;-58
2023/07/15 09:53:58;;;;;;;3.30;2.60;;;34.10;36.60;;;;;;5096873;28;20462;-58
2023/07/15 09:56:36;;;;;;;3.43;2.10;;;34.10;36.60;;;;;;5096793;28;20440;-57
2023/07/15 09:59:07;;;;;;;3.33;2.30;;;34.10;36.60;;;;;;5096660;28;20440;-59
2023/07/15 10:01:40;;;;;;;2.63;2.43;;;34.20;36.70;;;;;;5096601;28;20462;-59
2023/07/15 10:04:18;;;;;;;3.47;2.77;;;34.10;36.70;;;;;;5096654;28;20469;-59
2023/07/15 10:06:45;;;;;;;5.70;2.40;;;34.00;36.70;;;;;;5096489;28;20436;-59
2023/07/15 10:09:13;;;;;;;3.10;1.87;;;34.10;36.70;;;;;;5095192;28;20957;-57
2023/07/15 10:11:41;;;;;;;4.60;2.27;;;34.40;36.60;;;;;;5095427;28;20492;-58
2023/07/15 10:14:09;;;;;;;3.20;2.30;;;34.80;36.10;;;;;;5095814;28;20491;-58
2023/07/15 10:16:37;;;;;;;3.50;2.50;;;35.30;35.50;;;;;;5096401;28;20452;-59
2023/07/15 10:19:04;;;;;;;2.87;2.67;;;35.60;35.00;;;;;;5096165;28;20453;-58
2023/07/15 10:21:31;;;;;;;5.30;2.90;;;35.80;34.80;;;;;;5096103;28;20514;-60
2023/07/15 10:24:09;;;;;;;2.70;2.40;;;35.70;34.70;;;;;;5095632;28;20465;-58
2023/07/15 10:26:36;;;;;;;4.10;2.93;;;35.50;34.90;;;;;;5095779;28;20547;-59
2023/07/15 10:29:04;;;;;;;3.10;2.67;;;35.30;35.20;;;;;;5095378;28;20459;-60
2023/07/15 10:31:31;;;;;;;2.60;2.40;;;35.00;35.60;;;;;;5095922;28;20448;-58
2023/07/15 10:33:59;;;;;;;5.23;2.43;;;34.60;35.90;;;;;;5095463;28;20472;-59
2023/07/15 10:36:38;;;;;;;3.03;2.30;;;34.20;36.20;;;;;;5095442;28;20939;-58
2023/07/15 10:39:14;;;;;;;2.63;2.17;;;33.80;36.40;;;;;;5096097;28;20451;-58
2023/07/15 10:41:42;;;;;;;5.80;2.40;;;33.40;36.60;;;;;;5095425;28;20434;-59
2023/07/15 10:44:20;;;;;;;3.83;2.30;;;33.00;37.10;;;;;;5095866;28;20470;-59
2023/07/15 10:46:48;;;;;;;3.00;2.40;;;32.70;37.60;;;;;;5095450;28;20950;-58
2023/07/15 10:49:17;;;;;;;3.17;2.63;;;32.50;38.00;;;;;;5095352;28;20456;-58
2023/07/15 10:51:45;;;;;;;3.93;2.87;;;32.10;38.50;;;;;;5095901;28;20550;-59
2023/07/15 10:54:11;;;;;;;4.50;3.00;;;31.70;39.30;;;;;;5095543;28;20470;-59
2023/07/15 10:56:38;;;;;;;3.43;2.20;;;31.40;40.10;;;;;;5095292;28;20450;-59
2023/07/15 10:59:05;;;;;;;5.03;2.67;;;31.00;40.90;;;;;;5095636;28;20443;-58
2023/07/15 11:01:33;;;;;;;2.43;1.90;;;30.70;41.80;;;;;;5095751;28;20443;-58
2023/07/15 11:04:05;;;;;;;2.90;2.30;;;30.40;42.40;;;;;;5096238;28;20469;-58
2023/07/15 11:06:34;;;;;;;2.30;1.73;;;30.40;43.00;;;;;;5096160;28;20442;-59
2023/07/15 11:09:14;;;;;;;2.50;2.07;;;30.40;43.30;;;;;;5095572;28;20865;-59
2023/07/15 11:11:41;;;;;;;2.27;1.73;;;30.30;43.40;;;;;;5095194;28;20458;-59
2023/07/15 11:14:19;;;;;;;2.40;1.97;;;30.20;43.60;;;;;;5095779;28;20468;-59
2023/07/15 11:16:47;;;;;;;2.83;2.53;;;30.10;44.10;;;;;;5094307;28;20806;-58
2023/07/15 11:19:14;;;;;;;3.73;2.67;;;29.90;44.70;;;;;;5095424;28;20454;-60
2023/07/15 11:21:41;;;;;;;2.60;2.33;;;29.50;45.20;;;;;;5094188;28;20932;-58
2023/07/15 11:24:10;;;;;;;4.07;2.47;;;29.20;46.40;;;;;;5094642;28;20465;-59
2023/07/15 11:26:37;;;;;;;2.53;2.33;;;28.70;48.90;;;;;;5095153;28;20468;-59
2023/07/15 11:29:14;;;;;;;3.87;2.70;;;28.10;51.00;;;;;;5094632;28;20960;-58
2023/07/15 11:31:42;;;;;;;3.03;2.53;;;27.70;52.30;;;;;;5093657;28;20795;-58
2023/07/15 11:34:11;;;;;;;2.90;2.60;;;27.50;52.80;;;;;;5094531;28;20483;-58
2023/07/15 11:36:38;;;;;;;2.50;2.30;;;27.30;53.20;;;;;;5095002;28;20453;-58
2023/07/15 11:39:05;;;;;;;3.23;2.00;;;27.00;53.80;;;;;;5095548;28;20447;-59
2023/07/15 11:41:33;;;;;;;3.10;2.43;;;26.90;54.20;;;;;;5095331;28;20430;-58
2023/07/15 11:44:00;;;;;;;3.67;3.10;;;26.70;54.40;;;;;;5094963;28;20471;-58
2023/07/15 11:46:27;;;;;;;2.80;2.37;;;26.60;55.20;;;;;;5096219;28;20581;-58
2023/07/15 11:48:57;;;;;;;2.70;2.50;;;26.20;57.20;;;;;;5095742;28;20451;-61
2023/07/15 11:51:25;;;;;;;2.50;2.30;;;25.80;59.10;;;;;;5096324;28;20454;-58
2023/07/15 11:53:54;;;;;;;2.10;1.90;;;25.50;60.80;;;;;;5096721;28;20474;-58
2023/07/15 11:56:38;;;;;;;2.40;2.20;;;25.30;61.80;;;;;;5099018;28;20450;-59
2023/07/15 11:59:07;;;;;;;4.60;2.40;;;25.30;62.40;;;;;;5098480;28;20955;-59
2023/07/15 12:01:34;;;;;;;2.83;2.50;;;25.30;62.70;;;;;;5098662;28;20500;-57
2023/07/15 12:04:01;;;;;;;3.23;2.57;;;25.40;62.60;;;;;;5098620;28;20836;-58
2023/07/15 12:06:30;;;;;;;3.70;1.90;;;25.50;62.40;;;;;;5097888;28;20474;-57
2023/07/15 12:09:00;;;;;;;4.93;2.60;;;25.60;62.10;;;;;;5095277;28;20816;-58
2023/07/15 12:11:28;;;;;;;2.70;2.20;;;25.60;61.80;;;;;;5095576;28;20823;-57
2023/07/15 12:13:54;;;;;;;2.47;1.90;;;25.60;61.70;;;;;;5095833;28;20483;-58
2023/07/15 12:16:22;;;;;;;5.57;2.17;;;25.60;62.10;;;;;;5094782;28;20795;-58
2023/07/15 12:18:49;;;;;;;3.07;2.30;;;25.30;63.40;;;;;;5095133;28;20438;-58
2023/07/15 12:21:16;;;;;;;3.90;2.40;;;25.10;65.20;;;;;;5095421;28;20449;-58
2023/07/15 12:23:44;;;;;;;4.37;1.97;;;24.90;66.80;;;;;;5095259;28;20458;-59
2023/07/15 12:26:11;;;;;;;4.43;2.30;;;24.90;68.70;;;;;;5096132;28;20446;-58
2023/07/15 12:28:38;;;;;;;2.43;2.23;;;24.70;70.00;;;;;;5095215;28;20964;-58
2023/07/15 12:31:05;;;;;;;3.10;2.30;;;24.70;72.00;;;;;;5095766;28;20465;-58
2023/07/15 12:33:31;;;;;;;3.27;2.50;;;24.70;73.70;;;;;;5098398;28;20493;-58
2023/07/15 12:35:58;;;;;;;4.37;2.33;;;24.70;75.40;;;;;;5098957;28;20939;-59
2023/07/15 12:38:25;;;;;;;3.13;2.10;;;24.60;76.90;;;;;;5098701;28;20442;-57
2023/07/15 12:40:53;;;;;;;4.90;2.53;;;24.60;78.70;;;;;;5098128;28;20451;-57
2023/07/15 12:43:20;;;;;;;3.10;2.73;;;24.60;80.50;;;;;;5098689;28;20465;-58
2023/07/15 12:45:47;;;;;;;2.63;2.43;;;24.60;82.10;;;;;;5098267;28;20485;-60
2023/07/15 12:48:14;;;;;;;5.20;2.40;;;24.60;83.50;;;;;;5098686;28;20438;-58
2023/07/15 12:50:41;;;;;;;1.67;1.57;;;24.70;84.60;;;;;;5098527;28;20442;-58
2023/07/15 12:53:07;;;;;;;2.27;2.03;;;24.70;84.90;;;;;;5098389;28;20474;-59
2023/07/15 12:55:34;;;;;;;2.03;1.93;;;24.70;85.10;;;;;;5098791;28;20466;-58